Hauptseite
METAR-TAF:

METAR-TAF

Flughäfen :

Triest, Italien

Breite: 45-39N, Länge: 013-45E, Höhe: 8 m

Beobachtung

Neuester Wetterbericht von vor 1 Stunde und 15 Minuten, um 04:55 UTC
Wind 8 kt aus Nordost
Temperatur 19°C
Luftfeuchtigkeit 64%
Luftdruck 1014 hPa
Sichtweite 10 km oder mehr
keine Wolken unter 1500 m und keine Kumulonimbus oder Gewitterwolken

METAR: LIVT 180455Z 05008KT CAVOK 19/12 Q1014 RMK BKN BKN060 QUK / QUL / VIS MAR 15 KM VIS MIN 9999

Zeit: 08:10 (06:10 UTC)


TAF: fehlend

Wetterbeobachtungen und Prognosen von mehr als 4000 Flughäfen (METAR und TAF Bericht).

Die verfügbaren Stationen werden durch gelbe und rote Markierungen auf der Karte dargestellt.

Führen Sie die Maus auf sie, um den Namen der Station zu sehen.

Darauf klicken, um die Beobachtung von Wetterbeobachtungen und Prognosen zu sehen.

Um die Karte zu ändern : klicken Sie auf den grünen Tasten mit einem schwarzen Kreuz Zum Vergrößern, auf den grünen Button mit einem Gedankenstrich zu verkleinern, oder auf die grünen Pfeile für benachbarte Karten.


METAR-TAF: